Map

Track Data

SID SEASON NUMBER BASIN SUBBASIN NAME ISO_TIME NATURE LAT LON WMO_WIND WMO_PRES WMO_AGENCY TRACK_TYPE DIST2LAND LANDFALL IFLAG USA_AGENCY USA_ATCF_ID USA_LAT USA_LON USA_RECORD USA_STATUS USA_WIND USA_PRES USA_SSHS USA_R34_NE USA_R34_SE USA_R34_SW USA_R34_NW USA_R50_NE USA_R50_SE USA_R50_SW USA_R50_NW USA_R64_NE USA_R64_SE USA_R64_SW USA_R64_NW USA_POCI USA_ROCI USA_RMW USA_EYE TOKYO_LAT TOKYO_LON TOKYO_GRADE TOKYO_WIND TOKYO_PRES TOKYO_R50_DIR TOKYO_R50_LONG TOKYO_R50_SHORT TOKYO_R30_DIR TOKYO_R30_LONG TOKYO_R30_SHORT TOKYO_LAND CMA_LAT CMA_LON CMA_CAT CMA_WIND CMA_PRES HKO_LAT HKO_LON HKO_CAT HKO_WIND HKO_PRES NEWDELHI_LAT NEWDELHI_LON NEWDELHI_GRADE NEWDELHI_WIND NEWDELHI_PRES NEWDELHI_CI NEWDELHI_DP NEWDELHI_POCI REUNION_LAT REUNION_LON REUNION_TYPE REUNION_WIND REUNION_PRES REUNION_TNUM REUNION_CI REUNION_RMW REUNION_R34_NE REUNION_R34_SE REUNION_R34_SW REUNION_R34_NW REUNION_R50_NE REUNION_R50_SE REUNION_R50_SW REUNION_R50_NW REUNION_R64_NE REUNION_R64_SE REUNION_R64_SW REUNION_R64_NW BOM_LAT BOM_LON BOM_TYPE BOM_WIND BOM_PRES BOM_TNUM BOM_CI BOM_RMW BOM_R34_NE BOM_R34_SE BOM_R34_SW BOM_R34_NW BOM_R50_NE BOM_R50_SE BOM_R50_SW BOM_R50_NW BOM_R64_NE BOM_R64_SE BOM_R64_SW BOM_R64_NW BOM_ROCI BOM_POCI BOM_EYE BOM_POS_METHOD BOM_PRES_METHOD NADI_LAT NADI_LON NADI_CAT NADI_WIND NADI_PRES WELLINGTON_LAT WELLINGTON_LON WELLINGTON_WIND WELLINGTON_PRES DS824_LAT DS824_LON DS824_STAGE DS824_WIND DS824_PRES TD9636_LAT TD9636_LON TD9636_STAGE TD9636_WIND TD9636_PRES TD9635_LAT TD9635_LON TD9635_WIND TD9635_PRES TD9635_ROCI NEUMANN_LAT NEUMANN_LON NEUMANN_CLASS NEUMANN_WIND NEUMANN_PRES MLC_LAT MLC_LON MLC_CLASS MLC_WIND MLC_PRES USA_GUST BOM_GUST BOM_GUST_PER REUNION_GUST REUNION_GUST_PER USA_SEAHGT USA_SEARAD_NE USA_SEARAD_SE USA_SEARAD_SW USA_SEARAD_NW STORM_SPEED STORM_DIR
1902276N14266 1902 41 EP MM NOT_NAMED 1902-10-03 00:00:00 TS 14.0000 -93.8000 30 hurdat_atl main 163 155 O_____________ hurdat_atl AL041902 14.0000 -93.8000 TD 30 -1 5 339
1902276N14266 1902 41 EP MM NOT_NAMED 1902-10-03 03:00:00 TS 14.2500 -93.8975 main 147 139 P_____________ AL041902 14.2500 -93.8975 TD 30 -1 5 339
1902276N14266 1902 41 EP MM NOT_NAMED 1902-10-03 06:00:00 TS 14.5000 -94.0000 30 hurdat_atl main 139 131 O_____________ hurdat_atl AL041902 14.5000 -94.0000 TD 30 -1 5 338
1902276N14266 1902 41 EP MM NOT_NAMED 1902-10-03 09:00:00 TS 14.7500 -94.1075 main 124 113 P_____________ AL041902 14.7500 -94.1075 TD 30 -1 5 339
1902276N14266 1902 41 EP MM NOT_NAMED 1902-10-03 12:00:00 TS 15.0000 -94.2000 30 hurdat_atl main 113 92 O_____________ hurdat_atl AL041902 15.0000 -94.2000 TD 30 -1 5 344
1902276N14266 1902 41 EP MM NOT_NAMED 1902-10-03 15:00:00 TS 15.2500 -94.2575 main 95 64 P_____________ AL041902 15.2500 -94.2575 TD 30 -1 5 349
1902276N14266 1902 41 EP MM NOT_NAMED 1902-10-03 18:00:00 TS 15.5000 -94.3000 30 hurdat_atl main 64 44 O_____________ hurdat_atl AL041902 15.5000 -94.3000 TD 30 -1 5 350
1902276N14266 1902 41 EP MM NOT_NAMED 1902-10-03 21:00:00 TS 15.7500 -94.3500 main 35 15 P_____________ AL041902 15.7500 -94.3500 TD 30 -1 5 349
1902276N14266 1902 41 EP MM NOT_NAMED 1902-10-04 00:00:00 TS 16.0000 -94.4000 30 hurdat_atl main 15 0 O_____________ hurdat_atl AL041902 16.0000 -94.4000 TD 30 -1 5 349
1902276N14266 1902 41 EP MM NOT_NAMED 1902-10-04 03:00:00 TS 16.2500 -94.4500 main 0 0 P_____________ AL041902 16.2500 -94.4500 TD 30 -1 5 349
1902276N14266 1902 41 EP MM NOT_NAMED 1902-10-04 06:00:00 TS 16.5000 -94.5000 30 hurdat_atl main 0 0 O_____________ hurdat_atl AL041902 16.5000 -94.5000 TD 30 -1 5 349
1902276N14266 1902 41 EP MM NOT_NAMED 1902-10-04 09:00:00 TS 16.7500 -94.5500 main 0 0 P_____________ AL041902 16.7500 -94.5500 TD 30 -1 5 349
1902276N14266 1902 41 EP MM NOT_NAMED 1902-10-04 12:00:00 TS 17.0000 -94.6000 30 hurdat_atl main 0 0 O_____________ hurdat_atl AL041902 17.0000 -94.6000 TD 30 -1 5 349
1902276N14266 1902 41 EP MM NOT_NAMED 1902-10-04 15:00:00 TS 17.2500 -94.6500 main 0 0 P_____________ AL041902 17.2500 -94.6500 TD 30 -1 5 349
1902276N14266 1902 41 EP MM NOT_NAMED 1902-10-04 18:00:00 TS 17.5000 -94.7000 30 hurdat_atl main 0 0 O_____________ hurdat_atl AL041902 17.5000 -94.7000 TD 30 -1 5 349
1902276N14266 1902 41 EP MM NOT_NAMED 1902-10-04 21:00:00 TS 17.7500 -94.7500 main 0 0 P_____________ AL041902 17.7500 -94.7500 TD 30 -1 5 349
1902276N14266 1902 41 EP MM NOT_NAMED 1902-10-05 00:00:00 TS 18.0000 -94.8000 30 hurdat_atl main 0 0 O_____________ hurdat_atl AL041902 18.0000 -94.8000 TD 30 -1 5 349
1902276N14266 1902 41 EP MM NOT_NAMED 1902-10-05 03:00:00 TS 18.2725 -94.8575 main 0 0 P_____________ AL041902 18.2725 -94.8575 TD 30 -1 5 349
1902276N14266 1902 41 EP MM NOT_NAMED 1902-10-05 06:00:00 TS 18.5000 -94.9000 30 hurdat_atl main 10 10 O_____________ hurdat_atl AL041902 18.5000 -94.9000 TD 30 -1 4 350
1902276N14266 1902 41 EP MM NOT_NAMED 1902-10-05 09:00:00 TS 18.6300 -94.9225 main 10 10 P_____________ AL041902 18.6300 -94.9225 TD 32 -1 2 8
1902276N14266 1902 41 NA GM NOT_NAMED 1902-10-05 12:00:00 TS 18.7000 -94.9000 35 hurdat_atl main 15 15 O_____________ hurdat_atl AL041902 18.7000 -94.9000 TS 35 0 2 36
1902276N14266 1902 41 NA GM NOT_NAMED 1902-10-05 15:00:00 TS 18.7575 -94.8225 main 30 30 P_____________ AL041902 18.7575 -94.8225 TS 40 0 2 62
1902276N14266 1902 41 NA GM NOT_NAMED 1902-10-05 18:00:00 TS 18.8000 -94.7000 45 hurdat_atl main 38 38 O_____________ hurdat_atl AL041902 18.8000 -94.7000 TS 45 0 3 71
1902276N14266 1902 41 NA GM NOT_NAMED 1902-10-05 21:00:00 TS 18.8425 -94.5650 main 47 47 P_____________ AL041902 18.8425 -94.5650 TS 50 0 3 70
1902276N14266 1902 41 NA GM NOT_NAMED 1902-10-06 00:00:00 TS 18.9000 -94.4000 55 hurdat_atl main 70 70 O_____________ hurdat_atl AL041902 18.9000 -94.4000 TS 55 0 4 66
1902276N14266 1902 41 NA GM NOT_NAMED 1902-10-06 03:00:00 TS 18.9925 -94.2000 main 84 81 P_____________ AL041902 18.9925 -94.2000 TS 57 0 4 62
1902276N14266 1902 41 NA GM NOT_NAMED 1902-10-06 06:00:00 TS 19.1000 -94.0000 60 hurdat_atl main 90 89 O_____________ hurdat_atl AL041902 19.1000 -94.0000 TS 60 0 4 58
1902276N14266 1902 41 NA GM NOT_NAMED 1902-10-06 09:00:00 TS 19.1999 -93.8500 main 100 100 P_____________ AL041902 19.1999 -93.8500 TS 62 0 3 55
1902276N14266 1902 41 NA GM NOT_NAMED 1902-10-06 12:00:00 TS 19.3000 -93.7000 65 hurdat_atl main 111 111 O_____________ hurdat_atl AL041902 19.3000 -93.7000 HU 65 1 4 58
1902276N14266 1902 41 NA GM NOT_NAMED 1902-10-06 15:00:00 TS 19.4000 -93.5075 main 122 115 P_____________ AL041902 19.4000 -93.5075 HU 70 1 4 62
1902276N14266 1902 41 NA GM NOT_NAMED 1902-10-06 18:00:00 TS 19.5000 -93.3000 75 hurdat_atl main 118 113 O_____________ hurdat_atl AL041902 19.5000 -93.3000 HU 75 1 4 63
1902276N14266 1902 41 NA GM NOT_NAMED 1902-10-06 21:00:00 TS 19.5925 -93.1000 main 119 116 P_____________ AL041902 19.5925 -93.1000 HU 80 1 4 62
1902276N14266 1902 41 NA GM NOT_NAMED 1902-10-07 00:00:00 TS 19.7000 -92.9000 85 hurdat_atl main 124 123 O_____________ hurdat_atl AL041902 19.7000 -92.9000 HU 85 2 4 56
1902276N14266 1902 41 NA GM NOT_NAMED 1902-10-07 03:00:00 TS 19.8424 -92.7075 main 134 134 P_____________ AL041902 19.8425 -92.7075 HU 87 2 5 51
1902276N14266 1902 41 NA GM NOT_NAMED 1902-10-07 06:00:00 TS 20.0000 -92.5000 90 970 hurdat_atl main 156 155 O_____________ hurdat_atl AL041902 20.0000 -92.5000 HU 90 970 2 5 55
1902276N14266 1902 41 NA GM NOT_NAMED 1902-10-07 09:00:00 TS 20.1425 -92.2574 main 158 151 P_____________ AL041902 20.1425 -92.2574 HU 90 2 6 57
1902276N14266 1902 41 NA GM NOT_NAMED 1902-10-07 12:00:00 TS 20.3000 -92.0000 90 hurdat_atl main 151 135 O_____________ hurdat_atl AL041902 20.3000 -92.0000 HU 90 2 6 54
1902276N14266 1902 41 NA GM NOT_NAMED 1902-10-07 15:00:00 TS 20.4925 -91.7425 main 124 106 P_____________ AL041902 20.4925 -91.7425 HU 90 2 6 49
1902276N14266 1902 41 NA GM NOT_NAMED 1902-10-07 18:00:00 TS 20.7000 -91.5000 90 hurdat_atl main 106 89 O_____________ hurdat_atl AL041902 20.7000 -91.5000 HU 90 2 6 46
1902276N14266 1902 41 NA GM NOT_NAMED 1902-10-07 21:00:00 TS 20.9000 -91.2850 main 94 76 P_____________ AL041902 20.9000 -91.2850 HU 90 2 5 43
1902276N14266 1902 41 NA GM NOT_NAMED 1902-10-08 00:00:00 TS 21.1000 -91.1000 90 hurdat_atl main 80 73 O_____________ hurdat_atl AL041902 21.1000 -91.1000 HU 90 2 5 39
1902276N14266 1902 41 NA GM NOT_NAMED 1902-10-08 03:00:00 TS 21.2925 -90.9424 main 66 61 P_____________ AL041902 21.2925 -90.9424 HU 90 2 5 35
1902276N14266 1902 41 NA GM NOT_NAMED 1902-10-08 06:00:00 TS 21.5000 -90.8000 90 hurdat_atl main 68 68 O_____________ hurdat_atl AL041902 21.5000 -90.8000 HU 90 2 5 32
1902276N14266 1902 41 NA GM NOT_NAMED 1902-10-08 09:00:00 TS 21.7275 -90.6499 main 73 73 P_____________ AL041902 21.7275 -90.6499 HU 90 2 6 29
1902276N14266 1902 41 NA GM NOT_NAMED 1902-10-08 12:00:00 TS 22.0000 -90.5000 90 hurdat_atl main 102 102 O_____________ hurdat_atl AL041902 22.0000 -90.5000 HU 90 2 7 25
1902276N14266 1902 41 NA GM NOT_NAMED 1902-10-08 15:00:00 TS 22.3350 -90.3425 main 129 129 P_____________ AL041902 22.3350 -90.3425 HU 90 2 8 22
1902276N14266 1902 41 NA GM NOT_NAMED 1902-10-08 18:00:00 TS 22.7000 -90.2000 90 hurdat_atl main 170 170 O_____________ hurdat_atl AL041902 22.7000 -90.2000 HU 90 2 8 18
1902276N14266 1902 41 NA GM NOT_NAMED 1902-10-08 21:00:00 TS 23.0650 -90.0850 main 213 213 P_____________ AL041902 23.0650 -90.0850 HU 90 2 7 15
1902276N14266 1902 41 NA GM NOT_NAMED 1902-10-09 00:00:00 TS 23.4000 -90.0000 90 hurdat_atl main 245 245 O_____________ hurdat_atl AL041902 23.4000 -90.0000 HU 90 2 6 12
1902276N14266 1902 41 NA GM NOT_NAMED 1902-10-09 03:00:00 TS 23.6575 -89.9499 main 275 275 P_____________ AL041902 23.6575 -89.9499 HU 87 2 5 10
1902276N14266 1902 41 NA GM NOT_NAMED 1902-10-09 06:00:00 TS 23.9000 -89.9000 85 hurdat_atl main 297 297 O_____________ hurdat_atl AL041902 23.9000 -89.9000 HU 85 2 5 14
1902276N14266 1902 41 NA GM NOT_NAMED 1902-10-09 09:00:00 TS 24.1775 -89.8075 main 325 325 P_____________ AL041902 24.1775 -89.8075 HU 82 1 6 17
1902276N14266 1902 41 NA GM NOT_NAMED 1902-10-09 12:00:00 TS 24.5000 -89.7000 80 hurdat_atl main 353 353 O_____________ hurdat_atl AL041902 24.5000 -89.7000 HU 80 1 7 14
1902276N14266 1902 41 NA GM NOT_NAMED 1902-10-09 15:00:00 TS 24.8775 -89.6148 main 393 393 P_____________ AL041902 24.8775 -89.6148 HU 75 1 8 13
1902276N14266 1902 41 NA GM NOT_NAMED 1902-10-09 18:00:00 TS 25.3000 -89.5000 70 hurdat_atl main 415 369 O_____________ hurdat_atl AL041902 25.3000 -89.5000 HU 70 1 9 18
1902276N14266 1902 41 NA GM NOT_NAMED 1902-10-09 21:00:00 TS 25.7426 -89.3076 main 369 312 P_____________ AL041902 25.7426 -89.3076 HU 67 1 10 22
1902276N14266 1902 41 NA GM NOT_NAMED 1902-10-10 00:00:00 TS 26.2000 -89.1000 65 hurdat_atl main 312 268 O_____________ hurdat_atl AL041902 26.2000 -89.1000 HU 65 1 10 20
1902276N14266 1902 41 NA GM NOT_NAMED 1902-10-10 03:00:00 TS 26.6500 -88.9423 main 268 214 P_____________ AL041902 26.6500 -88.9423 HU 62 0 9 17
1902276N14266 1902 41 NA GM NOT_NAMED 1902-10-10 06:00:00 TS 27.1000 -88.8000 60 hurdat_atl main 214 171 O_____________ hurdat_atl AL041902 27.1000 -88.8000 TS 60 0 9 15
1902276N14266 1902 41 NA GM NOT_NAMED 1902-10-10 09:00:00 TS 27.5124 -88.6792 main 171 126 P_____________ AL041902 27.5124 -88.6792 TS 57 0 9 16
1902276N14266 1902 41 NA GM NOT_NAMED 1902-10-10 12:00:00 TS 28.0000 -88.5000 55 hurdat_atl main 126 95 O_____________ hurdat_atl AL041902 28.0000 -88.5000 TS 55 0 12 21
1902276N14266 1902 41 NA GM NOT_NAMED 1902-10-10 15:00:00 TS 28.6249 -88.2075 main 95 89 P_____________ AL041902 28.6249 -88.2075 TS 52 0 15 24
1902276N14266 1902 41 NA GM NOT_NAMED 1902-10-10 18:00:00 TS 29.4000 -87.8000 50 hurdat_atl main 91 9 O_____________ hurdat_atl AL041902 29.4000 -87.8000 TS 50 0 19 25
1902276N14266 1902 41 NA GM NOT_NAMED 1902-10-10 21:00:00 TS 30.3000 -87.3000 50 hurdat_atl main 9 0 O_____________ hurdat_atl AL041902 30.3000 -87.3000 L TS 50 0 18 26
1902276N14266 1902 41 NA NA NOT_NAMED 1902-10-11 00:00:00 TS 31.0000 -86.9000 40 hurdat_atl main 0 0 O_____________ hurdat_atl AL041902 31.0000 -86.9000 TS 40 0 16 27
1902276N14266 1902 41 NA NA NOT_NAMED 1902-10-11 03:00:00 TS 31.7601 -86.4272 main 0 0 P_____________ AL041902 31.7601 -86.4272 TS 37 0 17 30
1902276N14266 1902 41 NA NA NOT_NAMED 1902-10-11 06:00:00 ET 32.5000 -85.9000 35 hurdat_atl main 0 0 O_____________ hurdat_atl AL041902 32.5000 -85.9000 EX 35 -4 16 32
1902276N14266 1902 41 NA NA NOT_NAMED 1902-10-11 09:00:00 ET 33.1212 -85.4226 main 0 0 P_____________ AL041902 33.1212 -85.4226 EX 35 -4 15 38
1902276N14266 1902 41 NA NA NOT_NAMED 1902-10-11 12:00:00 ET 33.7000 -84.8000 35 hurdat_atl main 0 0 O_____________ hurdat_atl AL041902 33.7000 -84.8000 EX 35 -4 17 48
1902276N14266 1902 41 NA NA NOT_NAMED 1902-10-11 15:00:00 ET 34.2775 -83.8885 main 0 0 P_____________ AL041902 34.2775 -83.8885 EX 35 -4 20 54
1902276N14266 1902 41 NA NA NOT_NAMED 1902-10-11 18:00:00 ET 34.9000 -82.8000 35 hurdat_atl main 0 0 O_____________ hurdat_atl AL041902 34.9000 -82.8000 EX 35 -4 23 53
1902276N14266 1902 41 NA NA NOT_NAMED 1902-10-11 21:00:00 ET 35.6491 -81.6874 main 0 0 P_____________ AL041902 35.6491 -81.6874 EX 35 -4 24 51
1902276N14266 1902 41 NA NA NOT_NAMED 1902-10-12 00:00:00 ET 36.4000 -80.5000 35 hurdat_atl main 0 0 O_____________ hurdat_atl AL041902 36.4000 -80.5000 EX 35 -4 23 53
1902276N14266 1902 41 NA NA NOT_NAMED 1902-10-12 03:00:00 ET 37.0130 -79.4592 main 0 0 P_____________ AL041902 37.0130 -79.4592 EX 35 -4 23 59
1902276N14266 1902 41 NA NA NOT_NAMED 1902-10-12 06:00:00 ET 37.6000 -78.0000 35 hurdat_atl main 0 0 O_____________ hurdat_atl AL041902 37.6000 -78.0000 EX 35 -4 34 69
1902276N14266 1902 41 NA NA NOT_NAMED 1902-10-12 09:00:00 ET 38.2196 -75.4938 main 0 0 P_____________ AL041902 38.2196 -75.4938 EX 35 -4 43 74
1902276N14266 1902 41 NA NA NOT_NAMED 1902-10-12 12:00:00 ET 38.8000 -72.8000 35 hurdat_atl main 150 150 O_____________ hurdat_atl AL041902 38.8000 -72.8000 EX 35 -4 38 73
1902276N14266 1902 41 NA NA NOT_NAMED 1902-10-12 15:00:00 ET 39.3561 -70.8253 main 218 210 P_____________ AL041902 39.3561 -70.8253 EX 35 -4 31 69
1902276N14266 1902 41 NA NA NOT_NAMED 1902-10-12 18:00:00 ET 39.9000 -69.1000 35 hurdat_atl main 214 210 O_____________ hurdat_atl AL041902 39.9000 -69.1000 EX 35 -4 29 69
1902276N14266 1902 41 NA NA NOT_NAMED 1902-10-12 21:00:00 ET 40.4010 -67.3548 main 261 261 P_____________ AL041902 40.4010 -67.3548 EX 35 -4 29 70
1902276N14266 1902 41 NA NA NOT_NAMED 1902-10-13 00:00:00 ET 40.9000 -65.5000 35 hurdat_atl main 289 266 O_____________ hurdat_atl AL041902 40.9000 -65.5000 EX 35 -4 31 71
1902276N14266 1902 41 NA NA NOT_NAMED 1902-10-13 03:00:00 ET 41.4002 -63.4178 main 280 280 P_____________ AL041902 41.4002 -63.4178 EX 37 -4 35 73
1902276N14266 1902 41 NA NA NOT_NAMED 1902-10-13 06:00:00 ET 41.9000 -61.0000 40 hurdat_atl main 343 343 O_____________ hurdat_atl AL041902 41.9000 -61.0000 EX 40 -4 40 76
1902276N14266 1902 41 NA NA NOT_NAMED 1902-10-13 09:00:00 ET 42.3793 -58.1774 main 388 388 P_____________ AL041902 42.3793 -58.1774 EX 40 -4 44 78
1902276N14266 1902 41 NA NA NOT_NAMED 1902-10-13 12:00:00 ET 42.8000 -55.1000 40 hurdat_atl main 438 O_____________ hurdat_atl AL041902 42.8000 -55.1000 EX 40 -4 46 79

About IBTrACS Database

This database is a web-friendly format of International Best Track Archive for Climate Stewardship (IBTrACS), a global best track data archive curated by NOAA dating back to 1842.

Updated: 2021-10-21